Time;durP1;ratioP1;P1;durP2;ratioP2;P2;SDS_P1;SDS_P2;PMS_P1;PMS_P2;Temp;Humidity;BMP_temperature;BMP_pressure;BME280_temperature;BME280_humidity;BME280_pressure;Samples;Min_cycle;Max_cycle;Signal;HPM_P1;HPM_P2
2023/09/19 00:00:20;;;;;;;4.93;1.50;;;17.00;99.90;;;;;;5090554;28;20028;-85
2023/09/19 00:02:59;;;;;;;6.78;1.33;;;17.00;99.90;;;;;;5092109;28;20028;-89
2023/09/19 00:05:27;;;;;;;3.90;1.60;;;17.10;99.90;;;;;;5090548;28;20552;-85
2023/09/19 00:07:54;;;;;;;5.25;1.60;;;17.00;99.90;;;;;;5091211;28;20031;-86
2023/09/19 00:10:21;;;;;;;7.88;1.80;;;17.00;99.90;;;;;;5091327;28;20031;-86
2023/09/19 00:12:47;;;;;;;7.90;2.23;;;17.00;99.90;;;;;;5091740;28;20027;-89
2023/09/19 00:15:13;;;;;;;7.13;1.42;;;17.00;99.90;;;;;;5090492;28;20020;-86
2023/09/19 00:17:40;;;;;;;8.90;1.60;;;17.00;99.90;;;;;;5090265;28;20111;-85
2023/09/19 00:20:11;;;;;;;5.90;1.60;;;17.00;99.90;;;;;;5088411;28;20108;-85
2023/09/19 00:22:39;;;;;;;5.78;1.60;;;17.00;99.90;;;;;;5069308;28;20024;-85
2023/09/19 00:25:06;;;;;;;;;;;17.00;99.90;;;;;;5071616;28;20473;-87
2023/09/19 00:27:33;;;;;;;4.68;1.63;;;17.00;99.90;;;;;;5070203;28;19904;-85
2023/09/19 00:30:00;;;;;;;9.23;1.60;;;17.00;99.90;;;;;;5070736;28;20050;-85
2023/09/19 00:32:31;;;;;;;5.22;1.40;;;16.90;99.90;;;;;;5071350;28;20070;-85
2023/09/19 00:34:57;;;;;;;7.85;1.70;;;17.00;99.90;;;;;;5071209;28;20051;-87
2023/09/19 00:37:23;;;;;;;3.75;1.30;;;17.00;99.90;;;;;;5071749;28;20056;-89
2023/09/19 00:39:48;;;;;;;6.25;2.10;;;17.00;99.90;;;;;;5071006;28;20553;-85
2023/09/19 00:42:20;;;;;;;4.78;1.42;;;17.00;99.90;;;;;;5089056;28;20064;-89
2023/09/19 00:44:46;;;;;;;6.15;1.58;;;17.00;99.90;;;;;;5090952;28;20507;-85
2023/09/19 00:47:17;;;;;;;6.95;1.77;;;16.90;99.90;;;;;;5090964;28;20021;-85
2023/09/19 00:49:49;;;;;;;7.38;1.75;;;16.90;99.90;;;;;;5090044;28;20498;-85
2023/09/19 00:52:15;;;;;;;12.32;1.98;;;16.90;99.90;;;;;;5090912;28;20024;-89
2023/09/19 00:54:41;;;;;;;5.93;1.58;;;16.80;99.90;;;;;;5090979;28;20028;-85
2023/09/19 00:57:07;;;;;;;6.40;1.70;;;16.90;99.90;;;;;;5089712;28;20139;-86
2023/09/19 00:59:35;;;;;;;7.28;1.60;;;16.80;99.90;;;;;;5089925;28;20031;-87
2023/09/19 01:02:02;;;;;;;8.77;1.60;;;16.80;99.90;;;;;;5090644;28;20071;-84
2023/09/19 01:04:28;;;;;;;7.70;1.73;;;16.90;99.90;;;;;;5089578;28;20286;-85
2023/09/19 01:06:53;;;;;;;5.50;1.38;;;16.80;99.90;;;;;;5090272;28;20028;-89
2023/09/19 01:09:20;;;;;;;7.07;1.73;;;16.80;99.90;;;;;;5086916;28;20042;-85
2023/09/19 01:11:50;;;;;;;12.20;2.17;;;16.90;99.90;;;;;;5084697;28;20035;-88
2023/09/19 01:14:34;;;;;;;6.38;1.73;;;16.80;99.90;;;;;;5083005;28;20024;-85
2023/09/19 01:17:09;;;;;;;10.38;1.95;;;16.80;99.90;;;;;;5090592;28;20055;-85
2023/09/19 01:20:25;;;;;;;9.20;2.00;;;16.80;99.90;;;;;;5088993;28;20475;-85
2023/09/19 01:23:06;;;;;;;8.48;1.77;;;16.70;99.90;;;;;;5088027;28;20052;-84
2023/09/19 01:25:51;;;;;;;11.63;2.50;;;16.70;99.90;;;;;;5090522;28;20020;-88
2023/09/19 01:28:40;;;;;;;10.15;2.45;;;16.70;99.90;;;;;;5089250;28;20034;-89
2023/09/19 01:31:10;;;;;;;9.40;1.85;;;16.60;99.90;;;;;;5088955;28;20050;-84
2023/09/19 01:34:03;;;;;;;8.05;1.73;;;16.70;99.90;;;;;;5088605;28;20032;-84
2023/09/19 01:36:35;;;;;;;10.27;1.90;;;16.60;99.90;;;;;;5090400;28;20024;-85
2023/09/19 01:39:13;;;;;;;12.40;1.80;;;16.60;99.90;;;;;;5090155;28;20028;-84
2023/09/19 01:42:08;;;;;;;6.35;1.77;;;16.60;99.90;;;;;;5088990;28;20134;-86
2023/09/19 01:44:51;;;;;;;8.38;1.63;;;16.50;99.90;;;;;;5088737;28;20043;-89
2023/09/19 01:47:35;;;;;;;8.40;1.98;;;16.50;99.90;;;;;;5089987;28;20127;-85
2023/09/19 01:50:20;;;;;;;19.73;2.63;;;16.50;99.90;;;;;;5088507;28;20028;-84
2023/09/19 01:52:53;;;;;;;5.68;2.10;;;16.50;99.90;;;;;;5088983;28;20388;-84
2023/09/19 01:55:20;;;;;;;7.68;1.70;;;16.50;99.90;;;;;;5088596;28;20068;-88
2023/09/19 01:58:04;;;;;;;14.57;2.65;;;16.50;99.90;;;;;;5089833;28;20027;-88
2023/09/19 02:00:33;;;;;;;10.98;1.75;;;16.40;99.90;;;;;;5087638;28;20033;-85
2023/09/19 02:02:59;;;;;;;11.82;2.40;;;16.40;99.90;;;;;;5089771;28;20032;-85
2023/09/19 02:05:27;;;;;;;5.75;2.00;;;16.40;99.90;;;;;;5088401;28;20110;-86
2023/09/19 02:07:53;;;;;;;10.27;1.83;;;16.40;99.90;;;;;;5088482;28;20391;-85
2023/09/19 02:10:19;;;;;;;8.43;2.00;;;16.50;99.90;;;;;;5088354;28;20024;-88
2023/09/19 02:12:45;;;;;;;5.90;1.88;;;16.50;99.90;;;;;;5088722;28;20107;-87
2023/09/19 02:15:10;;;;;;;15.25;2.33;;;16.50;99.90;;;;;;5088422;28;20028;-88
2023/09/19 02:17:36;;;;;;;7.15;1.70;;;16.50;99.90;;;;;;5089339;28;20027;-85
2023/09/19 02:20:03;;;;;;;14.65;2.20;;;16.50;99.90;;;;;;5089514;28;20078;-85
2023/09/19 02:22:29;;;;;;;8.63;2.05;;;16.50;99.90;;;;;;5089036;28;20449;-85
2023/09/19 02:24:58;;;;;;;10.45;1.90;;;16.50;99.90;;;;;;5089409;28;20024;-85
2023/09/19 02:27:24;;;;;;;10.50;1.90;;;16.50;99.90;;;;;;5088158;28;20119;-86
2023/09/19 02:29:49;;;;;;;5.40;1.90;;;16.50;99.90;;;;;;5089264;28;20111;-87
2023/09/19 02:32:17;;;;;;;9.15;2.38;;;16.50;99.90;;;;;;5087392;28;20061;-86
2023/09/19 02:34:44;;;;;;;8.65;1.77;;;16.50;99.90;;;;;;5089327;28;20026;-85
2023/09/19 02:37:10;;;;;;;8.27;2.03;;;16.50;99.90;;;;;;5089256;28;20024;-85
2023/09/19 02:39:36;;;;;;;10.23;1.90;;;16.50;99.90;;;;;;5088091;28;20024;-84
2023/09/19 02:42:03;;;;;;;8.48;2.00;;;16.50;99.90;;;;;;5087947;28;20502;-87
2023/09/19 02:44:29;;;;;;;8.27;1.92;;;16.50;99.90;;;;;;5091962;28;20056;-87
2023/09/19 02:46:57;;;;;;;6.07;2.17;;;16.50;99.90;;;;;;5093646;28;20066;-85
2023/09/19 02:49:23;;;;;;;6.93;1.70;;;16.60;99.90;;;;;;5092106;28;20032;-89
2023/09/19 02:51:49;;;;;;;8.38;1.73;;;16.50;99.90;;;;;;5092128;28;20028;-85
2023/09/19 02:54:15;;;;;;;5.97;1.90;;;16.50;99.90;;;;;;5093266;28;20027;-90
2023/09/19 02:56:41;;;;;;;7.38;1.58;;;16.50;99.90;;;;;;5093558;28;20020;-84
2023/09/19 02:59:09;;;;;;;9.38;1.88;;;16.50;99.90;;;;;;5091921;28;20043;-85
2023/09/19 03:01:37;;;;;;;;;;;16.50;99.90;;;;;;5091522;28;20032;-88
2023/09/19 03:04:08;;;;;;;9.73;2.20;;;16.40;99.90;;;;;;5093138;28;19961;-88
2023/09/19 03:06:34;;;;;;;6.05;1.80;;;16.30;99.90;;;;;;5093175;28;20026;-87
2023/09/19 03:09:00;;;;;;;10.73;2.17;;;16.40;99.90;;;;;;5094112;28;20040;-88
2023/09/19 03:11:26;;;;;;;6.88;1.85;;;16.40;99.90;;;;;;5090965;28;20024;-87
2023/09/19 03:13:55;;;;;;;8.40;1.77;;;16.50;99.90;;;;;;5093108;28;20028;-88
2023/09/19 03:16:25;;;;;;;12.25;2.22;;;16.50;99.90;;;;;;5091700;28;20378;-87
2023/09/19 03:18:51;;;;;;;6.95;1.65;;;16.60;99.90;;;;;;5091745;28;20054;-86
2023/09/19 03:21:17;;;;;;;4.70;1.80;;;16.60;99.90;;;;;;5091901;28;20024;-86
2023/09/19 03:23:45;;;;;;;7.68;1.90;;;16.50;99.90;;;;;;5092850;28;20024;-85
2023/09/19 03:26:12;;;;;;;5.63;1.75;;;16.50;99.90;;;;;;5092723;28;20028;-85
2023/09/19 03:28:38;;;;;;;9.30;1.70;;;16.60;99.90;;;;;;5092708;28;20035;-87
2023/09/19 03:31:06;;;;;;;6.13;1.90;;;16.60;99.90;;;;;;5091105;28;20452;-86
2023/09/19 03:33:33;;;;;;;6.82;1.88;;;16.60;99.90;;;;;;5091969;28;20506;-85
2023/09/19 03:36:00;;;;;;;6.38;1.98;;;16.60;99.90;;;;;;5091316;28;20027;-85
2023/09/19 03:38:28;;;;;;;8.65;2.08;;;16.60;99.90;;;;;;5092330;28;20017;-85
2023/09/19 03:40:54;;;;;;;11.40;2.00;;;16.50;99.90;;;;;;5089895;28;20021;-86
2023/09/19 03:43:20;;;;;;;8.90;1.73;;;16.50;99.90;;;;;;5091150;28;20034;-84
2023/09/19 03:45:46;;;;;;;6.18;1.55;;;16.50;99.90;;;;;;5092174;28;20032;-88
2023/09/19 03:48:12;;;;;;;6.15;1.70;;;16.50;99.90;;;;;;5092190;28;20020;-88
2023/09/19 03:50:38;;;;;;;8.77;1.80;;;16.50;99.90;;;;;;5089639;28;20085;-84
2023/09/19 03:53:04;;;;;;;8.82;1.92;;;16.50;99.90;;;;;;5092761;28;20032;-85
2023/09/19 03:55:30;;;;;;;8.25;2.03;;;16.40;99.90;;;;;;5091879;28;20020;-85
2023/09/19 03:57:56;;;;;;;6.07;1.67;;;16.40;99.90;;;;;;5090789;28;20472;-89
2023/09/19 04:00:23;;;;;;;6.45;1.70;;;16.40;99.90;;;;;;5090094;28;20024;-86
2023/09/19 04:02:49;;;;;;;10.85;2.15;;;16.40;99.90;;;;;;5092186;28;20040;-86
2023/09/19 04:05:15;;;;;;;4.95;1.65;;;16.40;99.90;;;;;;5090630;28;20063;-88
2023/09/19 04:07:40;;;;;;;7.90;2.08;;;16.30;99.90;;;;;;5092131;28;20030;-86
2023/09/19 04:10:09;;;;;;;9.80;2.55;;;16.30;99.90;;;;;;5091947;28;20119;-90
2023/09/19 04:12:34;;;;;;;6.45;1.60;;;16.30;99.90;;;;;;5092756;28;20483;-86
2023/09/19 04:15:00;;;;;;;8.55;1.98;;;16.30;99.90;;;;;;5091478;28;20062;-85
2023/09/19 04:17:25;;;;;;;8.57;1.85;;;16.20;99.90;;;;;;5091294;28;20051;-86
2023/09/19 04:19:51;;;;;;;6.00;1.70;;;16.20;99.90;;;;;;5089422;28;20589;-86
2023/09/19 04:22:16;;;;;;;8.18;1.80;;;16.20;99.90;;;;;;5090553;28;20028;-87
2023/09/19 04:24:42;;;;;;;6.50;1.77;;;16.20;99.90;;;;;;5090478;28;20043;-86
2023/09/19 04:27:09;;;;;;;11.18;2.13;;;16.20;99.90;;;;;;5091647;28;20032;-85
2023/09/19 04:29:35;;;;;;;10.23;2.00;;;16.20;99.90;;;;;;5081669;28;20403;-86
2023/09/19 04:32:00;;;;;;;11.68;1.63;;;16.20;99.90;;;;;;5086474;28;20024;-88
2023/09/19 04:34:27;;;;;;;9.27;1.90;;;16.20;99.90;;;;;;5087442;28;20031;-89
2023/09/19 04:36:52;;;;;;;8.57;1.77;;;16.20;99.90;;;;;;5089960;28;20020;-88
2023/09/19 04:39:18;;;;;;;12.50;2.72;;;16.20;99.90;;;;;;5090663;28;20119;-86
2023/09/19 04:41:44;;;;;;;9.90;2.17;;;16.20;99.90;;;;;;5074052;28;20461;-85
2023/09/19 04:44:10;;;;;;;4.78;1.65;;;16.20;99.90;;;;;;5080242;28;20029;-86
2023/09/19 04:46:36;;;;;;;10.32;1.80;;;16.20;99.90;;;;;;5087975;28;20022;-86
2023/09/19 04:49:02;;;;;;;8.75;1.90;;;16.20;99.90;;;;;;5084239;28;20082;-89
2023/09/19 04:51:32;;;;;;;11.13;2.05;;;16.10;99.90;;;;;;5090720;28;20024;-86
2023/09/19 04:53:58;;;;;;;6.30;1.80;;;16.20;99.90;;;;;;5089683;28;20780;-86
2023/09/19 04:56:24;;;;;;;5.72;1.98;;;16.10;99.90;;;;;;5089649;28;20028;-88
2023/09/19 04:58:49;;;;;;;4.65;1.70;;;16.10;99.90;;;;;;5072461;28;20028;-87
2023/09/19 05:01:16;;;;;;;7.32;1.83;;;16.10;99.90;;;;;;5071235;28;20089;-84
2023/09/19 05:03:42;;;;;;;11.52;2.40;;;16.10;99.90;;;;;;5070593;28;20063;-86
2023/09/19 05:06:07;;;;;;;7.13;1.63;;;16.20;99.90;;;;;;5071242;28;20439;-87
2023/09/19 05:08:33;;;;;;;8.75;1.80;;;16.20;99.90;;;;;;5069880;28;20043;-86
2023/09/19 05:11:01;;;;;;;6.03;1.75;;;16.10;99.90;;;;;;5069549;28;20028;-86
2023/09/19 05:13:27;;;;;;;7.45;1.52;;;16.10;99.90;;;;;;5070164;28;20107;-84
2023/09/19 05:15:53;;;;;;;9.20;2.85;;;16.10;99.90;;;;;;5086975;28;20519;-88
2023/09/19 05:18:18;;;;;;;12.20;1.98;;;16.10;99.90;;;;;;5090132;28;20107;-85
2023/09/19 05:20:44;;;;;;;6.38;1.80;;;16.10;99.90;;;;;;5090364;28;20043;-85
2023/09/19 05:23:13;;;;;;;5.95;2.03;;;16.10;99.90;;;;;;5091242;28;20030;-87
2023/09/19 05:25:40;;;;;;;6.15;2.03;;;16.10;99.90;;;;;;5090032;28;20039;-85
2023/09/19 05:28:07;;;;;;;7.32;1.85;;;16.10;99.90;;;;;;5091065;28;20024;-87
2023/09/19 05:30:33;;;;;;;5.38;1.88;;;16.10;99.90;;;;;;5088818;28;20032;-88
2023/09/19 05:32:59;;;;;;;9.25;1.95;;;16.10;99.90;;;;;;5075560;28;20451;-85
2023/09/19 05:35:26;;;;;;;6.18;1.55;;;16.10;99.90;;;;;;5068333;28;20480;-84
2023/09/19 05:37:52;;;;;;;6.95;2.03;;;16.10;99.90;;;;;;5069782;28;20065;-84
2023/09/19 05:40:18;;;;;;;6.30;2.40;;;16.00;99.90;;;;;;5069819;28;20468;-85
2023/09/19 05:42:44;;;;;;;5.57;1.67;;;16.00;99.90;;;;;;5068309;28;20534;-87
2023/09/19 05:45:14;;;;;;;7.05;1.83;;;16.00;99.90;;;;;;5069183;28;20032;-87
2023/09/19 05:47:46;;;;;;;8.43;1.88;;;15.90;99.90;;;;;;5070486;28;20123;-86
2023/09/19 05:50:12;;;;;;;6.20;1.75;;;15.90;99.90;;;;;;5069724;28;20511;-86
2023/09/19 05:52:38;;;;;;;9.93;2.33;;;15.90;99.90;;;;;;5088029;28;20576;-84
2023/09/19 05:55:08;;;;;;;7.03;1.85;;;15.80;99.90;;;;;;5088597;28;20019;-88
2023/09/19 05:57:34;;;;;;;9.23;2.28;;;15.80;99.90;;;;;;5080821;28;20036;-84
2023/09/19 06:00:00;;;;;;;5.97;1.77;;;15.80;99.90;;;;;;5069517;28;20606;-86
2023/09/19 06:02:29;;;;;;;9.23;1.75;;;15.70;99.90;;;;;;5072861;28;20032;-85
2023/09/19 06:04:55;;;;;;;9.15;1.75;;;15.80;99.90;;;;;;5091288;28;20521;-84
2023/09/19 06:07:25;;;;;;;6.07;1.95;;;15.80;99.90;;;;;;5068389;28;20502;-84
2023/09/19 06:09:51;;;;;;;17.52;2.10;;;15.80;99.90;;;;;;5067210;28;20037;-86
2023/09/19 06:12:17;;;;;;;9.65;2.22;;;15.80;99.90;;;;;;5068707;28;20023;-85
2023/09/19 06:14:44;;;;;;;5.50;1.70;;;15.90;99.90;;;;;;5068864;28;20099;-84
2023/09/19 06:17:09;;;;;;;5.72;2.25;;;15.90;99.90;;;;;;5069412;28;20020;-84
2023/09/19 06:19:36;;;;;;;10.30;2.10;;;16.00;99.90;;;;;;5067355;28;20024;-85
2023/09/19 06:22:01;;;;;;;10.65;2.20;;;16.00;99.90;;;;;;5071002;28;20028;-83
2023/09/19 06:24:28;;;;;;;8.65;2.10;;;16.00;99.90;;;;;;5088105;28;20060;-86
2023/09/19 06:26:54;;;;;;;6.30;1.80;;;16.10;99.90;;;;;;5088754;28;20008;-86
2023/09/19 06:29:23;;;;;;;9.98;1.85;;;16.00;99.90;;;;;;5088070;28;20035;-85
2023/09/19 06:31:48;;;;;;;14.20;2.83;;;16.10;99.90;;;;;;5087489;28;20063;-85
2023/09/19 06:34:15;;;;;;;6.63;1.92;;;16.10;99.90;;;;;;5087743;28;20071;-84
2023/09/19 06:36:41;;;;;;;7.38;2.15;;;16.10;99.90;;;;;;5089231;28;20019;-85
2023/09/19 06:39:10;;;;;;;10.90;2.30;;;16.10;99.90;;;;;;5085711;28;20114;-84
2023/09/19 06:41:39;;;;;;;8.90;2.10;;;16.10;99.90;;;;;;5087062;28;20024;-83
2023/09/19 06:44:05;;;;;;;8.07;2.05;;;16.20;99.90;;;;;;5094573;28;20427;-85
2023/09/19 06:46:34;;;;;;;6.25;1.60;;;16.20;99.90;;;;;;5097011;28;20024;-84
2023/09/19 06:49:00;;;;;;;7.20;2.13;;;16.10;99.90;;;;;;5099690;28;20126;-87
2023/09/19 06:51:26;;;;;;;15.20;2.88;;;16.10;99.90;;;;;;5104751;28;20012;-87
2023/09/19 06:53:54;;;;;;;8.73;2.35;;;16.10;99.90;;;;;;5092774;28;20043;-85
2023/09/19 06:56:24;;;;;;;6.03;1.98;;;16.20;99.90;;;;;;5089694;28;20028;-84
2023/09/19 06:58:50;;;;;;;9.60;2.50;;;16.20;99.90;;;;;;5088190;28;20031;-84
2023/09/19 07:01:15;;;;;;;12.20;2.47;;;16.20;99.90;;;;;;5088443;28;20024;-85
2023/09/19 07:03:41;;;;;;;8.13;1.88;;;16.20;99.90;;;;;;5087524;28;20024;-85
2023/09/19 07:06:08;;;;;;;5.00;2.42;;;16.30;99.90;;;;;;5088354;28;20429;-86
2023/09/19 07:08:33;;;;;;;12.95;2.35;;;16.40;99.90;;;;;;5086714;28;20028;-85
2023/09/19 07:10:59;;;;;;;7.10;2.28;;;16.40;99.90;;;;;;5088238;28;20078;-84
2023/09/19 07:13:25;;;;;;;11.25;2.40;;;16.50;99.90;;;;;;5087013;28;20012;-84
2023/09/19 07:15:51;;;;;;;12.18;2.85;;;16.50;99.90;;;;;;5087235;28;20035;-86
2023/09/19 07:18:17;;;;;;;11.90;2.00;;;16.60;99.90;;;;;;5086858;28;20020;-84
2023/09/19 07:20:50;;;;;;;14.15;2.53;;;16.70;99.90;;;;;;5087523;28;20024;-86
2023/09/19 07:23:18;;;;;;;7.03;2.25;;;16.80;99.90;;;;;;5087606;28;20055;-84
2023/09/19 07:25:44;;;;;;;6.32;1.90;;;16.90;99.90;;;;;;5078007;28;20399;-85
2023/09/19 07:28:09;;;;;;;12.95;2.38;;;16.90;99.90;;;;;;5074910;28;20582;-85
2023/09/19 07:30:39;;;;;;;9.05;2.33;;;17.00;99.90;;;;;;5074668;28;20343;-83
2023/09/19 07:33:05;;;;;;;10.27;2.17;;;17.00;99.90;;;;;;5069791;28;20044;-83
2023/09/19 07:35:31;;;;;;;10.13;2.20;;;17.00;99.90;;;;;;5087187;28;20085;-85
2023/09/19 07:37:58;;;;;;;10.23;2.10;;;17.00;99.90;;;;;;5090147;28;20537;-85
2023/09/19 07:40:26;;;;;;;9.10;2.25;;;17.00;99.90;;;;;;5091322;28;20024;-84
2023/09/19 07:42:52;;;;;;;7.88;2.22;;;17.00;99.90;;;;;;5094365;28;20024;-85
2023/09/19 07:45:18;;;;;;;7.25;2.40;;;17.10;99.90;;;;;;5073988;28;20460;-86
2023/09/19 07:47:45;;;;;;;7.68;1.90;;;17.20;99.90;;;;;;5082037;28;20519;-87
2023/09/19 07:50:11;;;;;;;10.18;2.47;;;17.40;99.90;;;;;;5090190;28;20040;-87
2023/09/19 07:52:39;;;;;;;11.90;2.40;;;17.50;99.90;;;;;;5090043;28;20099;-86
2023/09/19 07:55:08;;;;;;;10.13;2.40;;;17.70;99.90;;;;;;5090089;28;20024;-86
2023/09/19 07:57:35;;;;;;;13.30;2.53;;;17.80;99.90;;;;;;5086886;28;20024;-86
2023/09/19 08:00:00;;;;;;;8.60;1.98;;;17.80;99.90;;;;;;5071147;28;20063;-86
2023/09/19 08:02:26;;;;;;;8.85;2.22;;;17.90;99.90;;;;;;5069009;28;20047;-87
2023/09/19 08:04:52;;;;;;;7.03;1.88;;;17.90;99.90;;;;;;5081465;28;20111;-85
2023/09/19 08:07:18;;;;;;;7.72;1.95;;;17.90;99.90;;;;;;5089896;28;20032;-86
2023/09/19 08:09:48;;;;;;;10.05;2.00;;;17.90;99.90;;;;;;5087786;28;20036;-85
2023/09/19 08:12:14;;;;;;;13.60;2.97;;;17.90;99.90;;;;;;5071811;28;20024;-85
2023/09/19 08:14:41;;;;;;;10.85;2.20;;;17.90;99.90;;;;;;5070475;28;20024;-84
2023/09/19 08:17:08;;;;;;;9.02;2.45;;;18.00;99.90;;;;;;5070695;28;20483;-83
2023/09/19 08:19:33;;;;;;;11.52;2.17;;;18.00;99.90;;;;;;5070838;28;20487;-85
2023/09/19 08:21:59;;;;;;;10.43;2.40;;;18.10;99.90;;;;;;5070451;28;20031;-85
2023/09/19 08:24:28;;;;;;;9.10;2.10;;;18.20;99.90;;;;;;5084876;28;20115;-86
2023/09/19 08:26:55;;;;;;;11.68;2.40;;;18.20;99.90;;;;;;5078834;28;20063;-87
2023/09/19 08:29:21;;;;;;;10.52;2.47;;;18.30;99.90;;;;;;5073717;28;20090;-85
2023/09/19 08:31:49;;;;;;;7.93;1.90;;;18.40;99.90;;;;;;5089644;28;20028;-86
2023/09/19 08:34:15;;;;;;;12.02;2.10;;;18.40;99.90;;;;;;5090548;28;20484;-86
2023/09/19 08:36:43;;;;;;;9.30;2.30;;;18.40;99.90;;;;;;5083643;28;20029;-86
2023/09/19 08:39:08;;;;;;;9.35;2.45;;;18.50;99.90;;;;;;5069236;28;20359;-85
2023/09/19 08:41:34;;;;;;;7.90;2.00;;;18.50;99.90;;;;;;5086442;28;20047;-86
2023/09/19 08:44:03;;;;;;;12.05;2.30;;;18.70;99.90;;;;;;5088853;28;20039;-86
2023/09/19 08:46:31;;;;;;;7.88;1.92;;;18.80;99.90;;;;;;5087883;28;20032;-87
2023/09/19 08:49:17;;;;;;;11.00;2.42;;;18.90;99.90;;;;;;5089130;28;20056;-86
2023/09/19 08:51:45;;;;;;;10.85;2.13;;;19.10;99.90;;;;;;5085056;28;20063;-87
2023/09/19 08:54:26;;;;;;;7.57;2.08;;;19.10;99.90;;;;;;5070144;28;20028;-89
2023/09/19 08:56:54;;;;;;;11.95;2.47;;;19.10;99.90;;;;;;5087987;28;20024;-86
2023/09/19 08:59:24;;;;;;;9.63;2.03;;;19.10;99.90;;;;;;5088961;28;20119;-86
2023/09/19 09:01:53;;;;;;;12.65;2.90;;;19.20;99.90;;;;;;5087975;28;20036;-86
2023/09/19 09:04:20;;;;;;;6.68;1.80;;;19.20;99.90;;;;;;5083237;28;20115;-86
2023/09/19 09:06:48;;;;;;;8.10;2.03;;;19.20;99.90;;;;;;5070761;28;20105;-86
2023/09/19 09:09:15;;;;;;;12.52;2.20;;;19.30;99.90;;;;;;5083670;28;20400;-87
2023/09/19 09:11:41;;;;;;;11.00;2.40;;;19.30;99.90;;;;;;5082224;28;20115;-87
2023/09/19 09:14:09;;;;;;;12.30;2.67;;;19.40;99.90;;;;;;5082482;28;20024;-86
2023/09/19 09:16:35;;;;;;;9.80;2.50;;;19.50;99.90;;;;;;5088707;28;20116;-87
2023/09/19 09:19:01;;;;;;;13.95;2.80;;;19.40;99.90;;;;;;5088744;28;20123;-87
2023/09/19 09:21:27;;;;;;;15.88;2.80;;;19.50;99.90;;;;;;5088456;28;20077;-86
2023/09/19 09:23:54;;;;;;;10.80;2.55;;;19.70;99.90;;;;;;5070184;28;20032;-86
2023/09/19 09:26:38;;;;;;;14.23;2.70;;;19.70;99.90;;;;;;5086870;28;20083;-85
2023/09/19 09:29:04;;;;;;;10.48;2.92;;;19.90;99.90;;;;;;5085694;28;20033;-85
2023/09/19 09:31:29;;;;;;;10.80;2.65;;;20.00;99.90;;;;;;5070134;28;20032;-86
2023/09/19 09:33:57;;;;;;;12.15;2.67;;;20.00;99.90;;;;;;5089593;28;20020;-87
2023/09/19 09:36:53;;;;;;;13.93;2.42;;;20.10;99.90;;;;;;5088209;28;20020;-85
2023/09/19 09:39:32;;;;;;;11.90;2.65;;;20.20;99.90;;;;;;5072186;28;20032;-86
2023/09/19 09:41:59;;;;;;;12.57;2.65;;;20.20;99.90;;;;;;5079601;28;20074;-86
2023/09/19 09:44:24;;;;;;;8.52;1.90;;;20.10;99.90;;;;;;5068611;28;20021;-86
2023/09/19 09:49:33;;;;;;;12.30;2.33;;;20.20;99.90;;;;;;5088861;28;20036;-91
2023/09/19 09:52:07;;;;;;;8.02;2.78;;;20.30;99.90;;;;;;5081815;28;20039;-89
2023/09/19 09:54:37;;;;;;;8.43;2.40;;;20.30;99.90;;;;;;5085274;28;20434;-87
2023/09/19 09:57:13;;;;;;;11.15;2.28;;;20.50;99.90;;;;;;5084188;28;20032;-86
2023/09/19 09:59:53;;;;;;;9.70;2.83;;;20.50;99.90;;;;;;5088883;28;20406;-87
2023/09/19 10:02:28;;;;;;;14.25;2.50;;;20.50;99.90;;;;;;5089567;28;20055;-85
2023/09/19 10:05:20;;;;;;;12.07;2.33;;;20.60;99.90;;;;;;5087704;28;20024;-86
2023/09/19 10:07:53;;;;;;;8.95;2.15;;;20.70;99.90;;;;;;5088951;28;20024;-85
2023/09/19 10:13:13;;;;;;;11.80;2.30;;;20.80;99.90;;;;;;5089067;28;20047;-87
2023/09/19 10:15:42;;;;;;;12.63;2.42;;;20.90;99.90;;;;;;5089279;28;20233;-86
2023/09/19 10:18:17;;;;;;;12.30;2.42;;;20.90;99.90;;;;;;5090844;28;20472;-86
2023/09/19 10:20:45;;;;;;;7.88;2.33;;;20.80;99.90;;;;;;5087373;28;20024;-86
2023/09/19 10:23:12;;;;;;;11.23;2.45;;;20.80;99.90;;;;;;5088832;28;20048;-86
2023/09/19 10:25:42;;;;;;;8.73;2.40;;;20.80;99.90;;;;;;5088264;28;20036;-86
2023/09/19 10:28:13;;;;;;;8.95;2.45;;;20.80;99.90;;;;;;5088632;28;20016;-85
2023/09/19 10:30:45;;;;;;;13.73;2.83;;;20.90;99.90;;;;;;5086729;28;20556;-85
2023/09/19 10:33:17;;;;;;;12.77;2.45;;;21.00;99.90;;;;;;5088537;28;20031;-86
2023/09/19 10:35:45;;;;;;;8.85;2.40;;;21.00;99.90;;;;;;5088337;28;20035;-86
2023/09/19 10:38:12;;;;;;;10.50;2.40;;;21.00;99.90;;;;;;5087272;28;20102;-85
2023/09/19 10:40:45;;;;;;;11.70;2.23;;;21.20;99.90;;;;;;5088420;28;20540;-86
2023/09/19 10:43:25;;;;;;;11.45;2.47;;;21.20;99.90;;;;;;5088520;28;20583;-86
2023/09/19 10:45:53;;;;;;;12.68;3.10;;;21.30;99.90;;;;;;5088252;28;20178;-85
2023/09/19 10:48:19;;;;;;;12.43;2.25;;;21.40;99.90;;;;;;5088918;28;20051;-85
2023/09/19 10:51:09;;;;;;;10.73;2.60;;;21.50;99.90;;;;;;5089276;28;20542;-85
2023/09/19 10:54:07;;;;;;;11.90;2.50;;;21.60;99.90;;;;;;5088260;28;20039;-86
2023/09/19 10:56:37;;;;;;;10.82;2.35;;;21.60;99.90;;;;;;5067837;28;20025;-86
2023/09/19 10:59:14;;;;;;;11.88;2.50;;;21.60;99.90;;;;;;5066991;28;20458;-85
2023/09/19 11:01:56;;;;;;;8.55;2.20;;;21.70;99.90;;;;;;5067907;28;20433;-86
2023/09/19 11:04:23;;;;;;;13.98;2.85;;;21.70;99.90;;;;;;5068077;28;20058;-85
2023/09/19 11:07:12;;;;;;;13.65;2.75;;;21.80;99.90;;;;;;5071980;28;20112;-85
2023/09/19 11:09:58;;;;;;;8.23;2.40;;;21.90;99.90;;;;;;5071754;28;20063;-85
2023/09/19 11:12:45;;;;;;;13.18;2.83;;;22.00;99.90;;;;;;5085840;28;20024;-86
2023/09/19 11:15:32;;;;;;;10.43;2.37;;;21.80;99.90;;;;;;5092069;28;20034;-86
2023/09/19 11:17:58;;;;;;;10.23;2.75;;;21.90;99.90;;;;;;5092042;28;20265;-85
2023/09/19 11:20:26;;;;;;;9.43;2.42;;;21.90;99.90;;;;;;5090513;28;20032;-85
2023/09/19 11:22:58;;;;;;;10.02;2.60;;;21.90;99.90;;;;;;5090818;28;20020;-85
2023/09/19 11:25:29;;;;;;;9.55;2.50;;;21.90;99.90;;;;;;5090334;28;20039;-86
2023/09/19 11:28:08;;;;;;;14.98;2.65;;;21.90;99.90;;;;;;5090684;28;20050;-86
2023/09/19 11:30:47;;;;;;;11.48;2.53;;;22.00;99.90;;;;;;5091559;28;20035;-85
2023/09/19 11:33:28;;;;;;;11.63;2.65;;;21.90;99.90;;;;;;5091880;28;20015;-85
2023/09/19 11:36:04;;;;;;;11.43;2.60;;;22.10;99.90;;;;;;5091698;28;20031;-85
2023/09/19 11:38:49;;;;;;;9.38;2.33;;;22.20;99.90;;;;;;5090202;28;20398;-85
2023/09/19 11:41:20;;;;;;;9.23;2.28;;;22.20;99.90;;;;;;5092265;28;20024;-85
2023/09/19 11:43:46;;;;;;;9.45;2.47;;;22.20;99.90;;;;;;5092462;28;20150;-85
2023/09/19 11:46:16;;;;;;;10.07;2.47;;;22.30;99.90;;;;;;5088955;28;20024;-85
2023/09/19 11:48:44;;;;;;;11.40;2.25;;;22.40;99.90;;;;;;5089717;28;20037;-85
2023/09/19 11:51:18;;;;;;;8.23;2.35;;;22.40;99.90;;;;;;5089867;28;20133;-85
2023/09/19 11:53:48;;;;;;;7.32;2.30;;;22.40;99.90;;;;;;5092398;28;20086;-86
2023/09/19 11:56:18;;;;;;;14.38;2.97;;;22.50;99.90;;;;;;5091308;28;20085;-85
2023/09/19 11:58:45;;;;;;;8.73;2.53;;;22.60;99.90;;;;;;5091640;28;20078;-86
2023/09/19 12:01:21;;;;;;;8.88;2.25;;;22.80;99.90;;;;;;5091130;28;20403;-85
2023/09/19 12:03:52;;;;;;;9.15;2.50;;;22.90;99.90;;;;;;5089708;28;20114;-85
2023/09/19 12:06:19;;;;;;;11.43;2.80;;;22.90;99.90;;;;;;5090444;28;20028;-86
2023/09/19 12:08:46;;;;;;;10.75;2.78;;;23.00;99.90;;;;;;5091735;28;20048;-86
2023/09/19 12:11:17;;;;;;;10.38;2.50;;;23.10;99.90;;;;;;5091039;28;20031;-86
2023/09/19 12:13:44;;;;;;;12.88;2.85;;;23.10;99.90;;;;;;5090791;28;20017;-86
2023/09/19 12:16:20;;;;;;;11.75;2.85;;;23.00;99.90;;;;;;5090769;28;20555;-85
2023/09/19 12:18:47;;;;;;;6.32;2.05;;;23.10;99.90;;;;;;5089237;28;20487;-86
2023/09/19 12:21:22;;;;;;;8.88;3.10;;;23.00;99.90;;;;;;5091436;28;20028;-86
2023/09/19 12:24:13;;;;;;;11.07;2.47;;;23.00;99.90;;;;;;5090186;28;20450;-86
2023/09/19 12:26:43;;;;;;;9.93;2.55;;;23.00;99.90;;;;;;5090523;28;20035;-85
2023/09/19 12:29:17;;;;;;;8.02;2.70;;;23.00;99.90;;;;;;5089053;28;20036;-85
2023/09/19 12:31:57;;;;;;;5.75;2.30;;;23.00;99.90;;;;;;5088949;28;20395;-86
2023/09/19 12:34:39;;;;;;;7.95;2.60;;;23.00;99.90;;;;;;5090041;28;20050;-86
2023/09/19 12:37:22;;;;;;;9.60;3.00;;;22.90;99.90;;;;;;5089531;28;20024;-86
2023/09/19 12:39:51;;;;;;;11.23;2.70;;;22.90;99.90;;;;;;5091450;28;20039;-86
2023/09/19 12:42:21;;;;;;;12.68;2.90;;;22.80;99.90;;;;;;5091224;28;20020;-86
2023/09/19 12:44:56;;;;;;;7.65;2.53;;;22.80;99.90;;;;;;5091321;28;20066;-85
2023/09/19 12:47:24;;;;;;;6.57;2.58;;;22.80;99.90;;;;;;5088710;28;20020;-86
2023/09/19 12:50:12;;;;;;;13.48;2.90;;;22.90;99.90;;;;;;5091342;28;20092;-86
2023/09/19 12:52:43;;;;;;;8.20;2.83;;;23.00;99.90;;;;;;5090287;28;20372;-85
2023/09/19 12:55:32;;;;;;;8.30;2.50;;;23.00;99.90;;;;;;5068858;28;20241;-86
2023/09/19 12:58:07;;;;;;;12.88;2.63;;;22.80;99.90;;;;;;5078432;28;20020;-86
2023/09/19 13:00:38;;;;;;;15.85;3.13;;;22.70;99.90;;;;;;5085566;28;20541;-86